SFR391 FALE-FAOR
Flight info
| Callsign | SFR391 |
|---|---|
| Flight time | 0h 51m |
| Altitude | 34000 |
| Route | GEPOM UZ29 UNPOM UNPOM1B |
| Aircraft | B738/M-SDE2E3FGHIRWXY/LB1 |
Departure
| Time | 2026-05-06 17:09 |
|---|---|
| Airport | King Shaka International Airport (FALE) |
Arrival
| Time | 2026-05-06 18:01 |
|---|---|
| Airport | O.R. Tambo International Airport (FAOR) |
| Time | Latitude | Longitude | Altitude | Speed | Heading |
|---|---|---|---|---|---|
| 2026-05-06 16:32 | -29.61995 | 31.10547 | 295 ft | 0 kts | 306° |
| 2026-05-06 16:55 | -29.62008 | 31.10566 | 300 ft | 4 kts | 307° |
| 2026-05-06 16:56 | -29.62021 | 31.10587 | 295 ft | 4 kts | 292° |
| 2026-05-06 16:56 | -29.62025 | 31.10603 | 297 ft | 4 kts | 252° |
| 2026-05-06 16:56 | -29.62010 | 31.10625 | 299 ft | 3 kts | 219° |
| 2026-05-06 16:56 | -29.62005 | 31.10631 | 299 ft | 0 kts | 219° |
| 2026-05-06 17:00 | -29.62005 | 31.10630 | 295 ft | 0 kts | 219° |
| 2026-05-06 17:00 | -29.62012 | 31.10624 | 296 ft | 2 kts | 219° |
| 2026-05-06 17:00 | -29.62032 | 31.10605 | 299 ft | 5 kts | 219° |
| 2026-05-06 17:00 | -29.62065 | 31.10575 | 295 ft | 7 kts | 218° |
| 2026-05-06 17:01 | -29.62111 | 31.10535 | 296 ft | 9 kts | 217° |
| 2026-05-06 17:01 | -29.62167 | 31.10486 | 295 ft | 10 kts | 218° |
| 2026-05-06 17:01 | -29.62223 | 31.10437 | 297 ft | 10 kts | 210° |
| 2026-05-06 17:01 | -29.62281 | 31.10460 | 296 ft | 10 kts | 128° |
| 2026-05-06 17:02 | -29.62322 | 31.10522 | 295 ft | 10 kts | 125° |
| 2026-05-06 17:02 | -29.62362 | 31.10582 | 295 ft | 9 kts | 127° |
| 2026-05-06 17:02 | -29.62398 | 31.10635 | 296 ft | 6 kts | 128° |
| 2026-05-06 17:02 | -29.62409 | 31.10650 | 296 ft | 0 kts | 127° |
| 2026-05-06 17:07 | -29.62411 | 31.10654 | 296 ft | 5 kts | 127° |
| 2026-05-06 17:08 | -29.62450 | 31.10714 | 296 ft | 10 kts | 127° |
| 2026-05-06 17:08 | -29.62481 | 31.10781 | 297 ft | 10 kts | 86° |
| 2026-05-06 17:08 | -29.62387 | 31.10871 | 297 ft | 42 kts | 36° |
| 2026-05-06 17:08 | -29.61932 | 31.11264 | 297 ft | 119 kts | 37° |
| 2026-05-06 17:09 | -29.61116 | 31.11965 | 418 ft | 166 kts | 35° |
| 2026-05-06 17:09 | -29.60171 | 31.12868 | 985 ft | 188 kts | 37° |
| 2026-05-06 17:09 | -29.59169 | 31.13879 | 1859 ft | 188 kts | 35° |
| 2026-05-06 17:09 | -29.58195 | 31.14903 | 2652 ft | 202 kts | 35° |
| 2026-05-06 17:10 | -29.57082 | 31.16101 | 2924 ft | 235 kts | 35° |
| 2026-05-06 17:10 | -29.55795 | 31.17442 | 3231 ft | 262 kts | 30° |
| 2026-05-06 17:10 | -29.54122 | 31.18130 | 3832 ft | 256 kts | 353° |
| 2026-05-06 17:10 | -29.52486 | 31.17523 | 4653 ft | 247 kts | 318° |
| 2026-05-06 17:11 | -29.51232 | 31.16182 | 5514 ft | 249 kts | 314° |
| 2026-05-06 17:11 | -29.49904 | 31.14848 | 6265 ft | 257 kts | 315° |
| 2026-05-06 17:11 | -29.48526 | 31.13505 | 7045 ft | 262 kts | 316° |
| 2026-05-06 17:11 | -29.47120 | 31.12152 | 7886 ft | 266 kts | 317° |
| 2026-05-06 17:12 | -29.45699 | 31.10797 | 8586 ft | 271 kts | 317° |
| 2026-05-06 17:12 | -29.44243 | 31.09418 | 9409 ft | 276 kts | 319° |
| 2026-05-06 17:12 | -29.42744 | 31.08007 | 10100 ft | 282 kts | 318° |
| 2026-05-06 17:12 | -29.41158 | 31.06515 | 10309 ft | 308 kts | 319° |
| 2026-05-06 17:13 | -29.39433 | 31.04898 | 10578 ft | 327 kts | 319° |
| 2026-05-06 17:13 | -29.37649 | 31.03233 | 11184 ft | 335 kts | 319° |
| 2026-05-06 17:13 | -29.35873 | 31.01569 | 12302 ft | 325 kts | 319° |
| 2026-05-06 17:13 | -29.34112 | 30.99916 | 13029 ft | 332 kts | 319° |
| 2026-05-06 17:14 | -29.32321 | 30.98236 | 13627 ft | 338 kts | 319° |
| 2026-05-06 17:14 | -29.30486 | 30.96523 | 14285 ft | 342 kts | 320° |
| 2026-05-06 17:14 | -29.28642 | 30.94805 | 15061 ft | 343 kts | 320° |
| 2026-05-06 17:14 | -29.26770 | 30.93064 | 15648 ft | 348 kts | 320° |
| 2026-05-06 17:15 | -29.24908 | 30.91337 | 16634 ft | 340 kts | 320° |
| 2026-05-06 17:15 | -29.23081 | 30.89645 | 17494 ft | 338 kts | 320° |
| 2026-05-06 17:15 | -29.21250 | 30.87948 | 18120 ft | 340 kts | 320° |
| 2026-05-06 17:15 | -29.19404 | 30.86240 | 18670 ft | 342 kts | 321° |
| 2026-05-06 17:16 | -29.17551 | 30.84527 | 19343 ft | 340 kts | 321° |
| 2026-05-06 17:16 | -29.15706 | 30.82821 | 19985 ft | 340 kts | 321° |
| 2026-05-06 17:16 | -29.13867 | 30.81122 | 20546 ft | 341 kts | 321° |
| 2026-05-06 17:16 | -29.12023 | 30.79419 | 21146 ft | 341 kts | 321° |
| 2026-05-06 17:17 | -29.10170 | 30.77708 | 21666 ft | 342 kts | 322° |
| 2026-05-06 17:17 | -29.08342 | 30.76022 | 22240 ft | 341 kts | 322° |
| 2026-05-06 17:17 | -29.06469 | 30.74294 | 22815 ft | 341 kts | 322° |
| 2026-05-06 17:17 | -29.04638 | 30.72606 | 23355 ft | 341 kts | 322° |
| 2026-05-06 17:18 | -29.02787 | 30.70901 | 23772 ft | 342 kts | 322° |
| 2026-05-06 17:18 | -29.00926 | 30.69188 | 24111 ft | 345 kts | 322° |
| 2026-05-06 17:18 | -28.99045 | 30.67457 | 24445 ft | 348 kts | 322° |
| 2026-05-06 17:18 | -28.97154 | 30.65717 | 24799 ft | 350 kts | 322° |
| 2026-05-06 17:19 | -28.95243 | 30.63961 | 25162 ft | 352 kts | 322° |
| 2026-05-06 17:19 | -28.93351 | 30.62222 | 25511 ft | 355 kts | 322° |
| 2026-05-06 17:19 | -28.91421 | 30.60449 | 25825 ft | 357 kts | 322° |
| 2026-05-06 17:19 | -28.89478 | 30.58666 | 26159 ft | 359 kts | 322° |
| 2026-05-06 17:20 | -28.87523 | 30.56871 | 26510 ft | 361 kts | 322° |
| 2026-05-06 17:20 | -28.85562 | 30.55072 | 26784 ft | 363 kts | 322° |
| 2026-05-06 17:20 | -28.83587 | 30.53262 | 27150 ft | 363 kts | 322° |
| 2026-05-06 17:20 | -28.81612 | 30.51453 | 27465 ft | 365 kts | 322° |
| 2026-05-06 17:21 | -28.79621 | 30.49629 | 27772 ft | 369 kts | 322° |
| 2026-05-06 17:21 | -28.77638 | 30.47813 | 28065 ft | 371 kts | 322° |
| 2026-05-06 17:21 | -28.75618 | 30.45965 | 28376 ft | 373 kts | 322° |
| 2026-05-06 17:21 | -28.73592 | 30.44113 | 28668 ft | 375 kts | 322° |
| 2026-05-06 17:22 | -28.71546 | 30.42243 | 28924 ft | 377 kts | 322° |
| 2026-05-06 17:22 | -28.69498 | 30.40373 | 29213 ft | 378 kts | 322° |
| 2026-05-06 17:22 | -28.67436 | 30.38491 | 29524 ft | 381 kts | 321° |
| 2026-05-06 17:22 | -28.65369 | 30.36604 | 29757 ft | 381 kts | 321° |
| 2026-05-06 17:23 | -28.63289 | 30.34707 | 30005 ft | 383 kts | 321° |
| 2026-05-06 17:23 | -28.61208 | 30.32809 | 30235 ft | 384 kts | 321° |
| 2026-05-06 17:23 | -28.59119 | 30.30906 | 30550 ft | 383 kts | 321° |
| 2026-05-06 17:23 | -28.57047 | 30.29019 | 30898 ft | 381 kts | 321° |
| 2026-05-06 17:24 | -28.55003 | 30.27158 | 31196 ft | 380 kts | 321° |
| 2026-05-06 17:24 | -28.52937 | 30.25278 | 31468 ft | 380 kts | 321° |
| 2026-05-06 17:24 | -28.50873 | 30.23402 | 31736 ft | 380 kts | 321° |
| 2026-05-06 17:24 | -28.48813 | 30.21530 | 32028 ft | 379 kts | 321° |
| 2026-05-06 17:25 | -28.46749 | 30.19655 | 32313 ft | 378 kts | 321° |
| 2026-05-06 17:25 | -28.44693 | 30.17789 | 32584 ft | 378 kts | 321° |
| 2026-05-06 17:25 | -28.42642 | 30.15928 | 32884 ft | 376 kts | 321° |
| 2026-05-06 17:25 | -28.40584 | 30.14112 | 33258 ft | 374 kts | 323° |
| 2026-05-06 17:26 | -28.38440 | 30.12432 | 33539 ft | 373 kts | 324° |
| 2026-05-06 17:26 | -28.36274 | 30.10801 | 33801 ft | 374 kts | 324° |
| 2026-05-06 17:26 | -28.34088 | 30.09170 | 33885 ft | 378 kts | 324° |
| 2026-05-06 17:27 | -28.29651 | 30.05852 | 33902 ft | 381 kts | 324° |
| 2026-05-06 17:27 | -28.25262 | 30.02549 | 33909 ft | 375 kts | 324° |
| 2026-05-06 17:28 | -28.20995 | 29.99326 | 33894 ft | 368 kts | 323° |
| 2026-05-06 17:28 | -28.16736 | 29.96105 | 33925 ft | 367 kts | 323° |
| 2026-05-06 17:29 | -28.12484 | 29.92890 | 33925 ft | 367 kts | 323° |
| 2026-05-06 17:29 | -28.08225 | 29.89671 | 33928 ft | 368 kts | 323° |
| 2026-05-06 17:30 | -28.03950 | 29.86446 | 33932 ft | 369 kts | 323° |
| 2026-05-06 17:30 | -27.99696 | 29.83240 | 33893 ft | 369 kts | 323° |
| 2026-05-06 17:31 | -27.95399 | 29.80004 | 33955 ft | 371 kts | 323° |
| 2026-05-06 17:31 | -27.91116 | 29.76782 | 33942 ft | 374 kts | 323° |
| 2026-05-06 17:32 | -27.86776 | 29.73519 | 33947 ft | 375 kts | 323° |
| 2026-05-06 17:32 | -27.82415 | 29.70246 | 33960 ft | 377 kts | 323° |
| 2026-05-06 17:33 | -27.78031 | 29.66958 | 33976 ft | 378 kts | 323° |
| 2026-05-06 17:33 | -27.73635 | 29.63664 | 33971 ft | 380 kts | 323° |
| 2026-05-06 17:34 | -27.69227 | 29.60364 | 33971 ft | 380 kts | 323° |
| 2026-05-06 17:34 | -27.64819 | 29.57068 | 33973 ft | 380 kts | 323° |
| 2026-05-06 17:35 | -27.60421 | 29.53783 | 34017 ft | 378 kts | 323° |
| 2026-05-06 17:35 | -27.56027 | 29.50502 | 33602 ft | 384 kts | 322° |
| 2026-05-06 17:36 | -27.51600 | 29.47202 | 33047 ft | 378 kts | 322° |
| 2026-05-06 17:36 | -27.49410 | 29.45572 | 32775 ft | 378 kts | 322° |
| 2026-05-06 17:36 | -27.47212 | 29.43935 | 32491 ft | 378 kts | 323° |
| 2026-05-06 17:36 | -27.45017 | 29.42299 | 32246 ft | 378 kts | 323° |
| 2026-05-06 17:37 | -27.42816 | 29.40662 | 31979 ft | 379 kts | 323° |
| 2026-05-06 17:37 | -27.40615 | 29.39024 | 31716 ft | 380 kts | 323° |
| 2026-05-06 17:37 | -27.38406 | 29.37382 | 31459 ft | 380 kts | 323° |
| 2026-05-06 17:37 | -27.36199 | 29.35743 | 31213 ft | 381 kts | 323° |
| 2026-05-06 17:38 | -27.33986 | 29.34099 | 30910 ft | 381 kts | 323° |
| 2026-05-06 17:38 | -27.31772 | 29.32456 | 30653 ft | 381 kts | 323° |
| 2026-05-06 17:38 | -27.29563 | 29.30818 | 30422 ft | 380 kts | 323° |
| 2026-05-06 17:38 | -27.27356 | 29.29181 | 30192 ft | 380 kts | 323° |
| 2026-05-06 17:39 | -27.25145 | 29.27542 | 29943 ft | 380 kts | 323° |
| 2026-05-06 17:39 | -27.22931 | 29.25902 | 29663 ft | 381 kts | 323° |
| 2026-05-06 17:39 | -27.20716 | 29.24262 | 29445 ft | 382 kts | 322° |
| 2026-05-06 17:39 | -27.18513 | 29.22632 | 29184 ft | 384 kts | 322° |
| 2026-05-06 17:40 | -27.16277 | 29.20977 | 28925 ft | 386 kts | 322° |
| 2026-05-06 17:40 | -27.14024 | 29.19311 | 28663 ft | 389 kts | 322° |
| 2026-05-06 17:40 | -27.11757 | 29.17634 | 28370 ft | 391 kts | 322° |
| 2026-05-06 17:40 | -27.09475 | 29.15948 | 28115 ft | 393 kts | 322° |
| 2026-05-06 17:41 | -27.07183 | 29.14256 | 27861 ft | 396 kts | 322° |
| 2026-05-06 17:41 | -27.04878 | 29.12555 | 27609 ft | 398 kts | 322° |
| 2026-05-06 17:41 | -27.02558 | 29.10845 | 27363 ft | 399 kts | 322° |
| 2026-05-06 17:41 | -27.00229 | 29.09128 | 27118 ft | 401 kts | 322° |
| 2026-05-06 17:42 | -26.97894 | 29.07408 | 26782 ft | 404 kts | 322° |
| 2026-05-06 17:42 | -26.95533 | 29.05668 | 26401 ft | 407 kts | 322° |
| 2026-05-06 17:42 | -26.93952 | 29.04504 | 26134 ft | 410 kts | 323° |
| 2026-05-06 17:42 | -26.90749 | 29.02147 | 25600 ft | 412 kts | 323° |
| 2026-05-06 17:43 | -26.88370 | 29.00400 | 25158 ft | 404 kts | 323° |
| 2026-05-06 17:43 | -26.86072 | 28.98716 | 24771 ft | 395 kts | 322° |
| 2026-05-06 17:43 | -26.83755 | 28.97015 | 24367 ft | 393 kts | 322° |
| 2026-05-06 17:43 | -26.81496 | 28.95354 | 24000 ft | 394 kts | 322° |
| 2026-05-06 17:44 | -26.79935 | 28.94200 | 23732 ft | 401 kts | 321° |
| 2026-05-06 17:44 | -26.77871 | 28.92092 | 23237 ft | 399 kts | 304° |
| 2026-05-06 17:44 | -26.76508 | 28.89488 | 22788 ft | 391 kts | 293° |
| 2026-05-06 17:44 | -26.75588 | 28.86615 | 22324 ft | 391 kts | 284° |
| 2026-05-06 17:45 | -26.75182 | 28.83612 | 21860 ft | 383 kts | 277° |
| 2026-05-06 17:45 | -26.74915 | 28.80716 | 21380 ft | 365 kts | 277° |
| 2026-05-06 17:45 | -26.74665 | 28.77951 | 20931 ft | 350 kts | 277° |
| 2026-05-06 17:45 | -26.74420 | 28.75296 | 20480 ft | 336 kts | 277° |
| 2026-05-06 17:46 | -26.74177 | 28.72744 | 20064 ft | 324 kts | 277° |
| 2026-05-06 17:46 | -26.73938 | 28.70289 | 19700 ft | 311 kts | 277° |
| 2026-05-06 17:46 | -26.73704 | 28.67925 | 19347 ft | 300 kts | 277° |
| 2026-05-06 17:46 | -26.73478 | 28.65666 | 19026 ft | 291 kts | 276° |
| 2026-05-06 17:47 | -26.73256 | 28.63455 | 18694 ft | 282 kts | 276° |
| 2026-05-06 17:47 | -26.73039 | 28.61304 | 18368 ft | 274 kts | 276° |
| 2026-05-06 17:47 | -26.72827 | 28.59205 | 17991 ft | 267 kts | 276° |
| 2026-05-06 17:47 | -26.72621 | 28.57170 | 17618 ft | 260 kts | 276° |
| 2026-05-06 17:48 | -26.72419 | 28.55184 | 17223 ft | 254 kts | 276° |
| 2026-05-06 17:48 | -26.72194 | 28.53243 | 16868 ft | 249 kts | 283° |
| 2026-05-06 17:48 | -26.71550 | 28.51483 | 16521 ft | 246 kts | 293° |
| 2026-05-06 17:48 | -26.70793 | 28.49797 | 16216 ft | 239 kts | 293° |
| 2026-05-06 17:49 | -26.70051 | 28.48161 | 15942 ft | 232 kts | 293° |
| 2026-05-06 17:49 | -26.69325 | 28.46573 | 15665 ft | 226 kts | 293° |
| 2026-05-06 17:49 | -26.68526 | 28.45082 | 15378 ft | 224 kts | 306° |
| 2026-05-06 17:49 | -26.67451 | 28.43836 | 15111 ft | 220 kts | 311° |
| 2026-05-06 17:50 | -26.66224 | 28.42807 | 14849 ft | 219 kts | 318° |
| 2026-05-06 17:50 | -26.64980 | 28.41857 | 14588 ft | 214 kts | 318° |
| 2026-05-06 17:50 | -26.63758 | 28.40932 | 14328 ft | 211 kts | 319° |
| 2026-05-06 17:50 | -26.62550 | 28.40018 | 14056 ft | 208 kts | 319° |
| 2026-05-06 17:51 | -26.61354 | 28.39115 | 13797 ft | 207 kts | 319° |
| 2026-05-06 17:51 | -26.60163 | 28.38212 | 13500 ft | 206 kts | 319° |
| 2026-05-06 17:51 | -26.58997 | 28.37325 | 13267 ft | 206 kts | 319° |
| 2026-05-06 17:51 | -26.57806 | 28.36414 | 13026 ft | 209 kts | 319° |
| 2026-05-06 17:52 | -26.56599 | 28.35481 | 12811 ft | 213 kts | 319° |
| 2026-05-06 17:52 | -26.55372 | 28.34525 | 12569 ft | 215 kts | 319° |
| 2026-05-06 17:52 | -26.54150 | 28.33569 | 12323 ft | 214 kts | 319° |
| 2026-05-06 17:52 | -26.52933 | 28.32620 | 12080 ft | 212 kts | 319° |
| 2026-05-06 17:53 | -26.51727 | 28.31679 | 11849 ft | 210 kts | 319° |
| 2026-05-06 17:53 | -26.50531 | 28.30749 | 11595 ft | 208 kts | 319° |
| 2026-05-06 17:53 | -26.49353 | 28.29836 | 11368 ft | 205 kts | 319° |
| 2026-05-06 17:53 | -26.48176 | 28.28924 | 11161 ft | 206 kts | 319° |
| 2026-05-06 17:54 | -26.46995 | 28.28006 | 10952 ft | 207 kts | 319° |
| 2026-05-06 17:54 | -26.45824 | 28.27094 | 10736 ft | 209 kts | 319° |
| 2026-05-06 17:54 | -26.44617 | 28.26153 | 10533 ft | 208 kts | 319° |
| 2026-05-06 17:54 | -26.43430 | 28.25230 | 10351 ft | 207 kts | 319° |
| 2026-05-06 17:55 | -26.42263 | 28.24323 | 10130 ft | 208 kts | 319° |
| 2026-05-06 17:55 | -26.41064 | 28.23389 | 9836 ft | 212 kts | 319° |
| 2026-05-06 17:55 | -26.39851 | 28.22442 | 9523 ft | 213 kts | 319° |
| 2026-05-06 17:55 | -26.38635 | 28.21489 | 9206 ft | 214 kts | 319° |
| 2026-05-06 17:56 | -26.37411 | 28.20523 | 8904 ft | 216 kts | 319° |
| 2026-05-06 17:56 | -26.36185 | 28.19552 | 8602 ft | 217 kts | 319° |
| 2026-05-06 17:56 | -26.34951 | 28.18572 | 8307 ft | 219 kts | 319° |
| 2026-05-06 17:56 | -26.33573 | 28.17812 | 8028 ft | 229 kts | 348° |
| 2026-05-06 17:57 | -26.32016 | 28.18053 | 8034 ft | 225 kts | 10° |
| 2026-05-06 17:57 | -26.30537 | 28.18511 | 8017 ft | 216 kts | 8° |
| 2026-05-06 17:57 | -26.29089 | 28.18942 | 8025 ft | 216 kts | 8° |
| 2026-05-06 17:57 | -26.27637 | 28.19388 | 8017 ft | 215 kts | 8° |
| 2026-05-06 17:58 | -26.26230 | 28.19829 | 7944 ft | 204 kts | 9° |
| 2026-05-06 17:58 | -26.24885 | 28.20248 | 7706 ft | 197 kts | 9° |
| 2026-05-06 17:58 | -26.23601 | 28.20648 | 7466 ft | 187 kts | 8° |
| 2026-05-06 17:58 | -26.22362 | 28.21032 | 7229 ft | 185 kts | 8° |
| 2026-05-06 17:59 | -26.21146 | 28.21411 | 6983 ft | 177 kts | 8° |
| 2026-05-06 17:59 | -26.19972 | 28.21776 | 6747 ft | 174 kts | 8° |
| 2026-05-06 17:59 | -26.18798 | 28.22140 | 6570 ft | 174 kts | 8° |
| 2026-05-06 17:59 | -26.17681 | 28.22489 | 6282 ft | 161 kts | 9° |
| 2026-05-06 18:00 | -26.16617 | 28.22818 | 5980 ft | 155 kts | 11° |
| 2026-05-06 18:00 | -26.15594 | 28.23139 | 5756 ft | 149 kts | 11° |
| 2026-05-06 18:00 | -26.14622 | 28.23442 | 5575 ft | 138 kts | 11° |
| 2026-05-06 18:00 | -26.13863 | 28.23673 | 5562 ft | 82 kts | 15° |
| 2026-05-06 18:01 | -26.13493 | 28.23790 | 5551 ft | 33 kts | 16° |
| 2026-05-06 18:01 | -26.13299 | 28.23850 | 5547 ft | 19 kts | 15° |
| 2026-05-06 18:01 | -26.13185 | 28.23812 | 5547 ft | 16 kts | 316° |
| 2026-05-06 18:01 | -26.13153 | 28.23772 | 5544 ft | 4 kts | 301° |
| 2026-05-06 18:02 | -26.13151 | 28.23767 | 5548 ft | 1 kts | 296° |
| 2026-05-06 18:02 | -26.13149 | 28.23758 | 5544 ft | 1 kts | 282° |
| 2026-05-06 18:02 | -26.13149 | 28.23743 | 5544 ft | 5 kts | 264° |
| 2026-05-06 18:02 | -26.13187 | 28.23691 | 5543 ft | 13 kts | 208° |
| 2026-05-06 18:03 | -26.13293 | 28.23655 | 5545 ft | 17 kts | 196° |
| 2026-05-06 18:03 | -26.13404 | 28.23616 | 5551 ft | 16 kts | 197° |
| 2026-05-06 18:03 | -26.13512 | 28.23584 | 5553 ft | 16 kts | 194° |
| 2026-05-06 18:03 | -26.13616 | 28.23552 | 5551 ft | 15 kts | 196° |
| 2026-05-06 18:04 | -26.13715 | 28.23520 | 5554 ft | 14 kts | 196° |
| 2026-05-06 18:04 | -26.13774 | 28.23499 | 5557 ft | 8 kts | 211° |
| 2026-05-06 18:04 | -26.13784 | 28.23430 | 5549 ft | 13 kts | 281° |
| 2026-05-06 18:04 | -26.13764 | 28.23325 | 5546 ft | 14 kts | 273° |
| 2026-05-06 18:05 | -26.13757 | 28.23222 | 5546 ft | 13 kts | 276° |
| 2026-05-06 18:05 | -26.13748 | 28.23139 | 5546 ft | 6 kts | 277° |
| 2026-05-06 18:05 | -26.13743 | 28.23092 | 5548 ft | 6 kts | 275° |
| 2026-05-06 18:05 | -26.13719 | 28.23062 | 5549 ft | 6 kts | 353° |
| 2026-05-06 18:06 | -26.13693 | 28.23063 | 5546 ft | 1 kts | 4° |
| 2026-05-06 18:06 | -26.13683 | 28.23064 | 5546 ft | 1 kts | 5° |
| 2026-05-06 18:06 | -26.13678 | 28.23065 | 5548 ft | 0 kts | 5° |